sensor_id;sensor_type;location;lat;lon;timestamp;P1;durP1;ratioP1;P2;durP2;ratioP2
76846;SDS011;65813;49.546;8.644;2023-11-18T04:48:13;16.17;;;7.55;;
76846;SDS011;65813;49.546;8.644;2023-11-18T04:52:13;13.43;;;7.05;;
76846;SDS011;65813;49.546;8.644;2023-11-18T04:56:14;12.57;;;6.30;;
76846;SDS011;65813;49.546;8.644;2023-11-18T05:00:16;16.05;;;7.60;;
76846;SDS011;65813;49.546;8.644;2023-11-18T05:04:18;14.50;;;7.18;;
76846;SDS011;65813;49.546;8.644;2023-11-18T05:08:20;15.95;;;8.00;;
76846;SDS011;65813;49.546;8.644;2023-11-18T05:12:21;17.20;;;8.35;;
76846;SDS011;65813;49.546;8.644;2023-11-18T05:16:22;17.27;;;7.60;;
76846;SDS011;65813;49.546;8.644;2023-11-18T05:20:22;14.93;;;7.73;;
76846;SDS011;65813;49.546;8.644;2023-11-18T05:24:23;12.18;;;7.07;;
76846;SDS011;65813;49.546;8.644;2023-11-18T05:28:23;12.70;;;6.50;;
76846;SDS011;65813;49.546;8.644;2023-11-18T05:32:27;12.07;;;6.28;;
76846;SDS011;65813;49.546;8.644;2023-11-18T05:36:28;15.32;;;7.65;;
76846;SDS011;65813;49.546;8.644;2023-11-18T05:40:31;15.93;;;7.35;;
76846;SDS011;65813;49.546;8.644;2023-11-18T05:44:31;16.03;;;7.17;;
76846;SDS011;65813;49.546;8.644;2023-11-18T05:48:37;16.73;;;7.72;;
76846;SDS011;65813;49.546;8.644;2023-11-18T05:52:37;12.83;;;6.83;;
76846;SDS011;65813;49.546;8.644;2023-11-18T05:56:38;13.70;;;6.20;;
76846;SDS011;65813;49.546;8.644;2023-11-18T06:00:38;12.53;;;6.03;;
76846;SDS011;65813;49.546;8.644;2023-11-18T06:04:40;14.90;;;6.72;;
76846;SDS011;65813;49.546;8.644;2023-11-18T06:08:42;15.25;;;6.35;;
76846;SDS011;65813;49.546;8.644;2023-11-18T06:12:43;15.10;;;6.45;;
76846;SDS011;65813;49.546;8.644;2023-11-18T06:16:43;15.07;;;6.37;;
76846;SDS011;65813;49.546;8.644;2023-11-18T06:20:43;16.60;;;8.13;;
76846;SDS011;65813;49.546;8.644;2023-11-18T06:24:43;14.20;;;7.67;;
76846;SDS011;65813;49.546;8.644;2023-11-18T06:28:44;18.05;;;8.25;;
76846;SDS011;65813;49.546;8.644;2023-11-18T06:32:45;19.58;;;8.90;;
76846;SDS011;65813;49.546;8.644;2023-11-18T06:36:48;13.88;;;7.35;;
76846;SDS011;65813;49.546;8.644;2023-11-18T06:40:49;17.17;;;8.20;;
76846;SDS011;65813;49.546;8.644;2023-11-18T06:44:52;17.02;;;8.82;;
76846;SDS011;65813;49.546;8.644;2023-11-18T06:48:53;19.27;;;9.13;;
76846;SDS011;65813;49.546;8.644;2023-11-18T06:52:54;18.60;;;9.55;;
76846;SDS011;65813;49.546;8.644;2023-11-18T06:56:54;16.75;;;8.32;;
76846;SDS011;65813;49.546;8.644;2023-11-18T07:00:55;16.67;;;8.13;;
76846;SDS011;65813;49.546;8.644;2023-11-18T07:04:56;17.10;;;8.60;;
76846;SDS011;65813;49.546;8.644;2023-11-18T07:08:56;17.90;;;9.87;;
76846;SDS011;65813;49.546;8.644;2023-11-18T07:13:00;20.35;;;9.98;;
76846;SDS011;65813;49.546;8.644;2023-11-18T07:17:00;20.60;;;9.47;;
76846;SDS011;65813;49.546;8.644;2023-11-18T07:21:01;22.70;;;9.97;;
76846;SDS011;65813;49.546;8.644;2023-11-18T07:25:05;23.15;;;10.68;;
76846;SDS011;65813;49.546;8.644;2023-11-18T07:29:06;21.27;;;9.82;;
76846;SDS011;65813;49.546;8.644;2023-11-18T07:33:09;20.48;;;9.80;;
76846;SDS011;65813;49.546;8.644;2023-11-18T07:37:12;23.20;;;10.65;;
76846;SDS011;65813;49.546;8.644;2023-11-18T07:41:16;22.85;;;10.82;;
76846;SDS011;65813;49.546;8.644;2023-11-18T07:45:27;23.08;;;10.32;;
76846;SDS011;65813;49.546;8.644;2023-11-18T07:49:28;23.02;;;10.88;;
76846;SDS011;65813;49.546;8.644;2023-11-18T07:53:29;22.83;;;9.90;;
76846;SDS011;65813;49.546;8.644;2023-11-18T07:57:29;18.00;;;9.02;;
76846;SDS011;65813;49.546;8.644;2023-11-18T08:01:30;21.93;;;9.50;;
76846;SDS011;65813;49.546;8.644;2023-11-18T08:05:30;20.02;;;8.75;;
76846;SDS011;65813;49.546;8.644;2023-11-18T08:09:32;23.63;;;8.80;;
76846;SDS011;65813;49.546;8.644;2023-11-18T08:13:32;11.93;;;6.45;;
76846;SDS011;65813;49.546;8.644;2023-11-18T08:17:33;17.35;;;6.90;;
76846;SDS011;65813;49.546;8.644;2023-11-18T08:21:34;13.90;;;6.72;;
76846;SDS011;65813;49.546;8.644;2023-11-18T08:25:35;12.40;;;6.55;;
76846;SDS011;65813;49.546;8.644;2023-11-18T08:29:38;13.52;;;6.20;;
76846;SDS011;65813;49.546;8.644;2023-11-18T08:33:38;11.90;;;5.83;;
76846;SDS011;65813;49.546;8.644;2023-11-18T08:37:39;11.67;;;5.57;;
76846;SDS011;65813;49.546;8.644;2023-11-18T08:41:40;13.02;;;5.70;;
76846;SDS011;65813;49.546;8.644;2023-11-18T08:45:43;11.85;;;5.20;;
76846;SDS011;65813;49.546;8.644;2023-11-18T08:49:44;12.23;;;6.07;;
76846;SDS011;65813;49.546;8.644;2023-11-18T08:53:46;12.50;;;6.00;;
76846;SDS011;65813;49.546;8.644;2023-11-18T08:57:48;15.70;;;6.75;;
76846;SDS011;65813;49.546;8.644;2023-11-18T09:01:58;17.33;;;8.05;;
76846;SDS011;65813;49.546;8.644;2023-11-18T09:06:01;13.00;;;6.63;;
76846;SDS011;65813;49.546;8.644;2023-11-18T09:10:04;15.20;;;6.53;;
76846;SDS011;65813;49.546;8.644;2023-11-18T09:14:05;12.60;;;5.75;;
76846;SDS011;65813;49.546;8.644;2023-11-18T09:18:07;11.68;;;5.50;;
76846;SDS011;65813;49.546;8.644;2023-11-18T09:22:11;14.20;;;6.43;;
76846;SDS011;65813;49.546;8.644;2023-11-18T09:26:16;12.77;;;5.85;;
76846;SDS011;65813;49.546;8.644;2023-11-18T09:30:17;10.55;;;5.45;;
76846;SDS011;65813;49.546;8.644;2023-11-18T09:34:18;13.18;;;6.57;;
76846;SDS011;65813;49.546;8.644;2023-11-18T09:38:30;9.15;;;5.45;;
76846;SDS011;65813;49.546;8.644;2023-11-18T09:42:32;12.38;;;6.50;;
76846;SDS011;65813;49.546;8.644;2023-11-18T09:46:33;12.38;;;5.43;;
76846;SDS011;65813;49.546;8.644;2023-11-18T09:50:40;11.60;;;5.15;;
76846;SDS011;65813;49.546;8.644;2023-11-18T09:55:03;11.93;;;5.60;;
76846;SDS011;65813;49.546;8.644;2023-11-18T09:59:49;9.88;;;5.32;;
76846;SDS011;65813;49.546;8.644;2023-11-18T10:03:47;9.73;;;5.20;;
76846;SDS011;65813;49.546;8.644;2023-11-18T10:07:49;10.27;;;5.15;;
76846;SDS011;65813;49.546;8.644;2023-11-18T10:11:51;10.52;;;4.97;;
76846;SDS011;65813;49.546;8.644;2023-11-18T10:15:55;8.88;;;4.53;;
76846;SDS011;65813;49.546;8.644;2023-11-18T10:19:58;10.80;;;5.53;;
76846;SDS011;65813;49.546;8.644;2023-11-18T10:24:12;9.60;;;5.25;;
76846;SDS011;65813;49.546;8.644;2023-11-18T10:32:31;9.77;;;5.90;;
76846;SDS011;65813;49.546;8.644;2023-11-18T10:36:35;10.27;;;5.60;;
76846;SDS011;65813;49.546;8.644;2023-11-18T10:40:36;10.43;;;5.22;;
76846;SDS011;65813;49.546;8.644;2023-11-18T10:44:38;11.90;;;6.32;;
76846;SDS011;65813;49.546;8.644;2023-11-18T10:48:53;9.52;;;5.30;;
76846;SDS011;65813;49.546;8.644;2023-11-18T10:52:54;8.95;;;4.28;;
76846;SDS011;65813;49.546;8.644;2023-11-18T10:56:56;10.40;;;5.03;;
76846;SDS011;65813;49.546;8.644;2023-11-18T11:00:58;8.50;;;3.97;;
76846;SDS011;65813;49.546;8.644;2023-11-18T11:05:00;7.45;;;3.70;;
76846;SDS011;65813;49.546;8.644;2023-11-18T11:09:03;7.15;;;3.70;;
76846;SDS011;65813;49.546;8.644;2023-11-18T11:13:11;6.75;;;3.25;;
76846;SDS011;65813;49.546;8.644;2023-11-18T11:17:16;7.80;;;3.40;;
76846;SDS011;65813;49.546;8.644;2023-11-18T11:21:27;5.45;;;3.08;;
76846;SDS011;65813;49.546;8.644;2023-11-18T11:29:51;5.47;;;2.90;;
76846;SDS011;65813;49.546;8.644;2023-11-18T11:33:57;7.25;;;3.63;;
76846;SDS011;65813;49.546;8.644;2023-11-18T11:38:02;5.45;;;2.97;;
76846;SDS011;65813;49.546;8.644;2023-11-18T11:42:09;6.80;;;3.05;;
76846;SDS011;65813;49.546;8.644;2023-11-18T11:46:12;5.13;;;3.00;;
76846;SDS011;65813;49.546;8.644;2023-11-18T11:50:15;5.22;;;2.72;;
76846;SDS011;65813;49.546;8.644;2023-11-18T11:55:12;6.00;;;2.40;;
76846;SDS011;65813;49.546;8.644;2023-11-18T11:58:58;5.03;;;2.72;;
76846;SDS011;65813;49.546;8.644;2023-11-18T12:03:00;8.38;;;2.47;;
76846;SDS011;65813;49.546;8.644;2023-11-18T12:07:08;5.25;;;2.53;;
76846;SDS011;65813;49.546;8.644;2023-11-18T12:11:08;4.75;;;1.90;;
76846;SDS011;65813;49.546;8.644;2023-11-18T12:15:09;6.00;;;2.20;;
76846;SDS011;65813;49.546;8.644;2023-11-18T12:19:30;5.38;;;2.20;;
76846;SDS011;65813;49.546;8.644;2023-11-18T12:41:35;4.85;;;2.55;;
76846;SDS011;65813;49.546;8.644;2023-11-18T12:50:09;3.92;;;1.95;;
76846;SDS011;65813;49.546;8.644;2023-11-18T12:54:19;5.13;;;1.83;;
76846;SDS011;65813;49.546;8.644;2023-11-18T12:58:20;2.95;;;1.27;;
76846;SDS011;65813;49.546;8.644;2023-11-18T13:02:23;4.82;;;1.88;;
76846;SDS011;65813;49.546;8.644;2023-11-18T13:06:24;6.55;;;1.92;;
76846;SDS011;65813;49.546;8.644;2023-11-18T13:10:28;4.78;;;1.67;;
76846;SDS011;65813;49.546;8.644;2023-11-18T13:14:31;4.13;;;1.67;;
76846;SDS011;65813;49.546;8.644;2023-11-18T13:18:45;4.40;;;1.73;;
76846;SDS011;65813;49.546;8.644;2023-11-18T13:22:49;5.03;;;1.40;;
76846;SDS011;65813;49.546;8.644;2023-11-18T13:26:50;4.53;;;1.30;;
76846;SDS011;65813;49.546;8.644;2023-11-18T13:31:02;2.53;;;1.37;;
76846;SDS011;65813;49.546;8.644;2023-11-18T13:35:04;2.55;;;1.30;;
76846;SDS011;65813;49.546;8.644;2023-11-18T13:39:17;3.90;;;1.23;;
76846;SDS011;65813;49.546;8.644;2023-11-18T13:43:21;3.65;;;1.35;;
76846;SDS011;65813;49.546;8.644;2023-11-18T13:47:22;3.90;;;1.15;;
76846;SDS011;65813;49.546;8.644;2023-11-18T13:51:31;1.77;;;1.15;;
76846;SDS011;65813;49.546;8.644;2023-11-18T13:55:35;4.15;;;1.70;;
76846;SDS011;65813;49.546;8.644;2023-11-18T13:59:38;2.15;;;1.30;;
76846;SDS011;65813;49.546;8.644;2023-11-18T14:03:39;2.47;;;1.40;;
76846;SDS011;65813;49.546;8.644;2023-11-18T14:07:43;1.80;;;1.00;;
76846;SDS011;65813;49.546;8.644;2023-11-18T14:11:45;3.85;;;1.50;;
76846;SDS011;65813;49.546;8.644;2023-11-18T14:15:46;5.07;;;1.50;;
76846;SDS011;65813;49.546;8.644;2023-11-18T14:19:46;3.13;;;1.25;;
76846;SDS011;65813;49.546;8.644;2023-11-18T14:23:47;4.67;;;1.33;;
76846;SDS011;65813;49.546;8.644;2023-11-18T14:27:47;2.57;;;1.10;;
76846;SDS011;65813;49.546;8.644;2023-11-18T14:31:49;3.63;;;1.30;;
76846;SDS011;65813;49.546;8.644;2023-11-18T14:35:51;3.08;;;1.23;;
76846;SDS011;65813;49.546;8.644;2023-11-18T14:39:51;3.33;;;1.40;;
76846;SDS011;65813;49.546;8.644;2023-11-18T14:43:54;5.25;;;1.38;;
76846;SDS011;65813;49.546;8.644;2023-11-18T14:47:55;3.75;;;1.67;;
76846;SDS011;65813;49.546;8.644;2023-11-18T14:51:56;3.58;;;1.40;;
76846;SDS011;65813;49.546;8.644;2023-11-18T14:55:56;3.22;;;1.15;;
76846;SDS011;65813;49.546;8.644;2023-11-18T14:59:57;4.20;;;1.38;;
76846;SDS011;65813;49.546;8.644;2023-11-18T15:03:59;3.95;;;1.50;;
76846;SDS011;65813;49.546;8.644;2023-11-18T15:07:59;4.23;;;1.83;;
76846;SDS011;65813;49.546;8.644;2023-11-18T15:12:06;3.22;;;1.50;;
76846;SDS011;65813;49.546;8.644;2023-11-18T15:16:43;4.45;;;1.70;;
76846;SDS011;65813;49.546;8.644;2023-11-18T15:20:46;5.55;;;2.25;;
76846;SDS011;65813;49.546;8.644;2023-11-18T15:24:47;3.28;;;1.73;;
76846;SDS011;65813;49.546;8.644;2023-11-18T15:28:58;4.90;;;1.73;;
76846;SDS011;65813;49.546;8.644;2023-11-18T15:32:59;7.38;;;2.00;;
76846;SDS011;65813;49.546;8.644;2023-11-18T15:37:02;5.65;;;2.10;;
76846;SDS011;65813;49.546;8.644;2023-11-18T15:41:05;5.30;;;2.30;;
76846;SDS011;65813;49.546;8.644;2023-11-18T15:50:15;7.60;;;2.72;;
76846;SDS011;65813;49.546;8.644;2023-11-18T15:54:19;3.63;;;2.00;;
76846;SDS011;65813;49.546;8.644;2023-11-18T15:58:20;5.97;;;3.38;;
76846;SDS011;65813;49.546;8.644;2023-11-18T16:02:22;4.60;;;1.95;;
76846;SDS011;65813;49.546;8.644;2023-11-18T16:06:23;4.07;;;1.98;;
76846;SDS011;65813;49.546;8.644;2023-11-18T16:10:24;6.47;;;1.90;;
76846;SDS011;65813;49.546;8.644;2023-11-18T16:14:27;3.45;;;1.60;;
76846;SDS011;65813;49.546;8.644;2023-11-18T16:18:28;3.60;;;1.10;;
76846;SDS011;65813;49.546;8.644;2023-11-18T16:22:28;3.40;;;1.23;;
76846;SDS011;65813;49.546;8.644;2023-11-18T16:26:28;3.40;;;1.37;;
76846;SDS011;65813;49.546;8.644;2023-11-18T16:30:29;5.33;;;1.63;;
76846;SDS011;65813;49.546;8.644;2023-11-18T16:34:29;3.47;;;1.40;;
76846;SDS011;65813;49.546;8.644;2023-11-18T16:38:30;5.78;;;2.20;;
76846;SDS011;65813;49.546;8.644;2023-11-18T16:42:31;4.77;;;1.60;;
76846;SDS011;65813;49.546;8.644;2023-11-18T16:46:36;3.37;;;1.37;;
76846;SDS011;65813;49.546;8.644;2023-11-18T16:50:37;4.53;;;1.40;;
76846;SDS011;65813;49.546;8.644;2023-11-18T16:54:38;4.03;;;1.60;;
76846;SDS011;65813;49.546;8.644;2023-11-18T16:58:39;3.28;;;1.45;;
76846;SDS011;65813;49.546;8.644;2023-11-18T17:02:39;3.10;;;1.40;;
76846;SDS011;65813;49.546;8.644;2023-11-18T17:06:40;4.30;;;1.53;;
76846;SDS011;65813;49.546;8.644;2023-11-18T17:10:41;5.60;;;2.35;;
76846;SDS011;65813;49.546;8.644;2023-11-18T17:14:43;6.93;;;2.70;;
76846;SDS011;65813;49.546;8.644;2023-11-18T17:18:43;6.03;;;2.50;;
76846;SDS011;65813;49.546;8.644;2023-11-18T17:22:44;3.00;;;1.10;;
76846;SDS011;65813;49.546;8.644;2023-11-18T17:26:47;3.03;;;1.45;;
76846;SDS011;65813;49.546;8.644;2023-11-18T17:30:49;3.75;;;1.50;;
76846;SDS011;65813;49.546;8.644;2023-11-18T17:34:50;2.20;;;1.30;;
76846;SDS011;65813;49.546;8.644;2023-11-18T17:38:50;3.67;;;1.60;;
76846;SDS011;65813;49.546;8.644;2023-11-18T17:42:50;4.25;;;1.88;;
76846;SDS011;65813;49.546;8.644;2023-11-18T17:46:51;3.78;;;1.60;;
76846;SDS011;65813;49.546;8.644;2023-11-18T17:50:51;5.82;;;1.85;;
76846;SDS011;65813;49.546;8.644;2023-11-18T17:54:53;4.05;;;2.03;;
76846;SDS011;65813;49.546;8.644;2023-11-18T17:58:56;4.30;;;1.40;;
76846;SDS011;65813;49.546;8.644;2023-11-18T18:02:56;2.63;;;1.00;;
76846;SDS011;65813;49.546;8.644;2023-11-18T18:06:57;3.90;;;1.30;;
76846;SDS011;65813;49.546;8.644;2023-11-18T18:10:57;3.30;;;1.10;;
76846;SDS011;65813;49.546;8.644;2023-11-18T18:14:57;4.57;;;1.35;;
76846;SDS011;65813;49.546;8.644;2023-11-18T18:18:58;2.95;;;1.10;;
76846;SDS011;65813;49.546;8.644;2023-11-18T18:22:59;2.72;;;1.20;;
76846;SDS011;65813;49.546;8.644;2023-11-18T18:27:00;3.92;;;1.08;;
76846;SDS011;65813;49.546;8.644;2023-11-18T18:31:00;4.20;;;1.13;;
76846;SDS011;65813;49.546;8.644;2023-11-18T18:35:01;3.30;;;1.13;;
76846;SDS011;65813;49.546;8.644;2023-11-18T18:39:02;4.97;;;1.40;;
76846;SDS011;65813;49.546;8.644;2023-11-18T18:43:03;3.03;;;1.10;;
76846;SDS011;65813;49.546;8.644;2023-11-18T18:47:03;1.13;;;0.90;;
76846;SDS011;65813;49.546;8.644;2023-11-18T18:51:04;1.73;;;1.00;;
76846;SDS011;65813;49.546;8.644;2023-11-18T18:55:04;3.15;;;1.23;;
76846;SDS011;65813;49.546;8.644;2023-11-18T18:59:06;0.98;;;0.68;;
76846;SDS011;65813;49.546;8.644;2023-11-18T19:03:11;2.22;;;1.10;;
76846;SDS011;65813;49.546;8.644;2023-11-18T19:07:12;2.90;;;1.30;;
76846;SDS011;65813;49.546;8.644;2023-11-18T19:11:12;4.30;;;1.13;;
76846;SDS011;65813;49.546;8.644;2023-11-18T19:15:13;5.15;;;1.65;;
76846;SDS011;65813;49.546;8.644;2023-11-18T19:19:16;4.22;;;1.30;;
76846;SDS011;65813;49.546;8.644;2023-11-18T19:23:18;2.22;;;1.00;;
76846;SDS011;65813;49.546;8.644;2023-11-18T19:27:18;3.23;;;1.70;;
76846;SDS011;65813;49.546;8.644;2023-11-18T19:31:19;2.70;;;1.50;;
76846;SDS011;65813;49.546;8.644;2023-11-18T19:35:19;4.38;;;1.48;;
76846;SDS011;65813;49.546;8.644;2023-11-18T19:39:20;3.17;;;1.17;;
76846;SDS011;65813;49.546;8.644;2023-11-18T19:43:20;2.93;;;1.40;;
76846;SDS011;65813;49.546;8.644;2023-11-18T19:47:20;3.60;;;1.50;;
76846;SDS011;65813;49.546;8.644;2023-11-18T19:51:21;4.07;;;1.35;;
76846;SDS011;65813;49.546;8.644;2023-11-18T19:55:21;5.03;;;1.40;;
76846;SDS011;65813;49.546;8.644;2023-11-18T19:59:21;6.60;;;1.50;;
76846;SDS011;65813;49.546;8.644;2023-11-18T20:03:22;2.13;;;1.30;;
76846;SDS011;65813;49.546;8.644;2023-11-18T20:07:22;6.68;;;1.73;;
76846;SDS011;65813;49.546;8.644;2023-11-18T20:11:24;3.83;;;1.73;;
76846;SDS011;65813;49.546;8.644;2023-11-18T20:15:24;3.00;;;1.30;;
76846;SDS011;65813;49.546;8.644;2023-11-18T20:19:29;4.68;;;1.80;;
76846;SDS011;65813;49.546;8.644;2023-11-18T20:23:29;12.32;;;2.42;;
76846;SDS011;65813;49.546;8.644;2023-11-18T20:27:29;3.20;;;1.53;;
76846;SDS011;65813;49.546;8.644;2023-11-18T20:31:30;5.10;;;1.80;;
76846;SDS011;65813;49.546;8.644;2023-11-18T20:35:30;4.97;;;1.88;;
76846;SDS011;65813;49.546;8.644;2023-11-18T20:39:31;5.43;;;2.10;;
76846;SDS011;65813;49.546;8.644;2023-11-18T20:43:33;5.13;;;2.10;;
76846;SDS011;65813;49.546;8.644;2023-11-18T20:47:34;5.70;;;1.85;;
76846;SDS011;65813;49.546;8.644;2023-11-18T20:51:35;3.97;;;1.58;;
76846;SDS011;65813;49.546;8.644;2023-11-18T20:55:36;4.43;;;1.65;;
76846;SDS011;65813;49.546;8.644;2023-11-18T20:59:36;6.78;;;2.60;;
76846;SDS011;65813;49.546;8.644;2023-11-18T21:03:36;4.13;;;1.80;;
76846;SDS011;65813;49.546;8.644;2023-11-18T21:07:38;3.65;;;1.52;;
76846;SDS011;65813;49.546;8.644;2023-11-18T21:11:38;4.22;;;2.10;;
76846;SDS011;65813;49.546;8.644;2023-11-18T21:15:38;3.63;;;1.77;;
76846;SDS011;65813;49.546;8.644;2023-11-18T21:19:39;4.30;;;2.00;;
76846;SDS011;65813;49.546;8.644;2023-11-18T21:23:40;2.72;;;1.40;;
76846;SDS011;65813;49.546;8.644;2023-11-18T21:27:41;4.15;;;2.17;;
76846;SDS011;65813;49.546;8.644;2023-11-18T21:31:44;6.38;;;2.40;;
76846;SDS011;65813;49.546;8.644;2023-11-18T21:35:44;5.13;;;2.10;;
76846;SDS011;65813;49.546;8.644;2023-11-18T21:39:44;4.13;;;2.13;;
76846;SDS011;65813;49.546;8.644;2023-11-18T21:43:45;4.33;;;2.13;;
76846;SDS011;65813;49.546;8.644;2023-11-18T21:47:45;5.07;;;2.10;;
76846;SDS011;65813;49.546;8.644;2023-11-18T21:51:45;5.73;;;2.20;;
76846;SDS011;65813;49.546;8.644;2023-11-18T21:55:47;4.57;;;2.25;;
76846;SDS011;65813;49.546;8.644;2023-11-18T21:59:54;4.88;;;2.45;;
76846;SDS011;65813;49.546;8.644;2023-11-18T22:03:54;4.10;;;1.70;;
76846;SDS011;65813;49.546;8.644;2023-11-18T22:07:55;4.45;;;2.65;;
76846;SDS011;65813;49.546;8.644;2023-11-18T22:11:55;5.40;;;2.50;;
76846;SDS011;65813;49.546;8.644;2023-11-18T22:36:46;4.28;;;2.25;;
76846;SDS011;65813;49.546;8.644;2023-11-18T22:40:48;6.28;;;2.63;;
76846;SDS011;65813;49.546;8.644;2023-11-18T22:44:49;4.80;;;2.40;;
76846;SDS011;65813;49.546;8.644;2023-11-18T22:48:51;4.97;;;2.70;;
76846;SDS011;65813;49.546;8.644;2023-11-18T22:52:51;6.83;;;2.73;;
76846;SDS011;65813;49.546;8.644;2023-11-18T22:56:53;4.38;;;2.25;;
76846;SDS011;65813;49.546;8.644;2023-11-18T23:00:54;5.10;;;2.80;;
76846;SDS011;65813;49.546;8.644;2023-11-18T23:04:55;5.03;;;2.83;;
76846;SDS011;65813;49.546;8.644;2023-11-18T23:08:57;4.40;;;2.45;;
76846;SDS011;65813;49.546;8.644;2023-11-18T23:12:58;5.20;;;2.95;;
76846;SDS011;65813;49.546;8.644;2023-11-18T23:16:59;4.97;;;2.45;;
76846;SDS011;65813;49.546;8.644;2023-11-18T23:21:00;4.70;;;2.50;;
76846;SDS011;65813;49.546;8.644;2023-11-18T23:25:00;5.90;;;2.97;;
76846;SDS011;65813;49.546;8.644;2023-11-18T23:29:01;6.60;;;3.13;;
76846;SDS011;65813;49.546;8.644;2023-11-18T23:33:02;4.85;;;2.70;;
76846;SDS011;65813;49.546;8.644;2023-11-18T23:37:04;5.25;;;2.45;;
76846;SDS011;65813;49.546;8.644;2023-11-18T23:41:05;7.40;;;3.05;;
76846;SDS011;65813;49.546;8.644;2023-11-18T23:45:06;6.38;;;2.90;;
76846;SDS011;65813;49.546;8.644;2023-11-18T23:49:07;5.10;;;2.90;;
